sensor_id;sensor_type;location;lat;lon;timestamp;temperature;humidity
12289;DHT22;6207;49.308;7.336;2022-07-23T00:01:37;20.80;99.90
12289;DHT22;6207;49.308;7.336;2022-07-23T00:04:04;20.90;99.90
12289;DHT22;6207;49.308;7.336;2022-07-23T00:06:31;20.60;99.90
12289;DHT22;6207;49.308;7.336;2022-07-23T00:08:58;20.70;99.90
12289;DHT22;6207;49.308;7.336;2022-07-23T00:11:25;20.70;99.90
12289;DHT22;6207;49.308;7.336;2022-07-23T00:13:52;20.70;99.90
12289;DHT22;6207;49.308;7.336;2022-07-23T00:16:21;20.60;99.90
12289;DHT22;6207;49.308;7.336;2022-07-23T00:18:48;20.50;99.90
12289;DHT22;6207;49.308;7.336;2022-07-23T00:21:15;20.50;99.90
12289;DHT22;6207;49.308;7.336;2022-07-23T00:23:41;20.50;99.90
12289;DHT22;6207;49.308;7.336;2022-07-23T00:26:08;20.50;99.90
12289;DHT22;6207;49.308;7.336;2022-07-23T00:28:35;20.50;99.90
12289;DHT22;6207;49.308;7.336;2022-07-23T00:31:02;20.40;99.90
12289;DHT22;6207;49.308;7.336;2022-07-23T00:33:29;20.50;99.90
12289;DHT22;6207;49.308;7.336;2022-07-23T00:35:56;20.60;99.90
12289;DHT22;6207;49.308;7.336;2022-07-23T00:38:23;20.60;99.90
12289;DHT22;6207;49.308;7.336;2022-07-23T00:40:49;20.70;99.90
12289;DHT22;6207;49.308;7.336;2022-07-23T00:43:16;20.60;99.90
12289;DHT22;6207;49.308;7.336;2022-07-23T00:45:43;20.60;99.90
12289;DHT22;6207;49.308;7.336;2022-07-23T00:48:10;20.30;99.90
12289;DHT22;6207;49.308;7.336;2022-07-23T00:50:36;20.20;99.90
12289;DHT22;6207;49.308;7.336;2022-07-23T00:53:04;20.10;99.90
12289;DHT22;6207;49.308;7.336;2022-07-23T00:55:31;20.20;99.90
12289;DHT22;6207;49.308;7.336;2022-07-23T00:57:59;20.10;99.90
12289;DHT22;6207;49.308;7.336;2022-07-23T01:00:26;20.20;99.90
12289;DHT22;6207;49.308;7.336;2022-07-23T01:02:53;20.20;99.90
12289;DHT22;6207;49.308;7.336;2022-07-23T01:05:20;20.20;99.90
12289;DHT22;6207;49.308;7.336;2022-07-23T01:07:50;20.10;99.90
12289;DHT22;6207;49.308;7.336;2022-07-23T01:10:22;20.10;99.90
12289;DHT22;6207;49.308;7.336;2022-07-23T01:13:06;20.10;99.90
12289;DHT22;6207;49.308;7.336;2022-07-23T01:15:35;20.10;99.90
12289;DHT22;6207;49.308;7.336;2022-07-23T01:18:03;20.00;99.90
12289;DHT22;6207;49.308;7.336;2022-07-23T01:20:31;20.00;99.90
12289;DHT22;6207;49.308;7.336;2022-07-23T01:22:59;20.00;99.90
12289;DHT22;6207;49.308;7.336;2022-07-23T01:25:26;19.80;99.90
12289;DHT22;6207;49.308;7.336;2022-07-23T01:27:53;19.90;99.90
12289;DHT22;6207;49.308;7.336;2022-07-23T01:30:20;20.00;99.90
12289;DHT22;6207;49.308;7.336;2022-07-23T01:32:47;19.90;99.90
12289;DHT22;6207;49.308;7.336;2022-07-23T01:35:14;19.80;99.90
12289;DHT22;6207;49.308;7.336;2022-07-23T01:37:41;19.70;99.90
12289;DHT22;6207;49.308;7.336;2022-07-23T01:40:08;19.60;99.90
12289;DHT22;6207;49.308;7.336;2022-07-23T01:42:35;19.60;99.90
12289;DHT22;6207;49.308;7.336;2022-07-23T01:45:04;19.60;99.90
12289;DHT22;6207;49.308;7.336;2022-07-23T01:47:31;19.60;99.90
12289;DHT22;6207;49.308;7.336;2022-07-23T01:49:58;19.60;99.90
12289;DHT22;6207;49.308;7.336;2022-07-23T01:52:25;19.30;99.90
12289;DHT22;6207;49.308;7.336;2022-07-23T01:54:52;19.40;99.90
12289;DHT22;6207;49.308;7.336;2022-07-23T01:57:18;19.40;99.90
12289;DHT22;6207;49.308;7.336;2022-07-23T01:59:45;19.30;99.90
12289;DHT22;6207;49.308;7.336;2022-07-23T02:02:12;19.20;99.90
12289;DHT22;6207;49.308;7.336;2022-07-23T02:04:39;19.20;99.90
12289;DHT22;6207;49.308;7.336;2022-07-23T02:07:06;19.10;99.90
12289;DHT22;6207;49.308;7.336;2022-07-23T02:09:33;19.00;99.90
12289;DHT22;6207;49.308;7.336;2022-07-23T02:12:00;19.10;99.90
12289;DHT22;6207;49.308;7.336;2022-07-23T02:14:27;19.00;99.90
12289;DHT22;6207;49.308;7.336;2022-07-23T02:16:54;19.00;99.90
12289;DHT22;6207;49.308;7.336;2022-07-23T02:19:21;19.00;99.90
12289;DHT22;6207;49.308;7.336;2022-07-23T02:21:48;19.10;99.90
12289;DHT22;6207;49.308;7.336;2022-07-23T02:24:15;19.10;99.90
12289;DHT22;6207;49.308;7.336;2022-07-23T02:26:42;19.00;99.90
12289;DHT22;6207;49.308;7.336;2022-07-23T02:29:09;19.10;99.90
12289;DHT22;6207;49.308;7.336;2022-07-23T02:31:36;19.00;99.90
12289;DHT22;6207;49.308;7.336;2022-07-23T02:34:03;19.00;99.90
12289;DHT22;6207;49.308;7.336;2022-07-23T02:36:30;19.00;99.90
12289;DHT22;6207;49.308;7.336;2022-07-23T02:38:57;18.90;99.90
12289;DHT22;6207;49.308;7.336;2022-07-23T02:41:25;18.90;99.90
12289;DHT22;6207;49.308;7.336;2022-07-23T02:43:52;18.70;99.90
12289;DHT22;6207;49.308;7.336;2022-07-23T02:46:18;18.60;99.90
12289;DHT22;6207;49.308;7.336;2022-07-23T02:48:45;18.70;99.90
12289;DHT22;6207;49.308;7.336;2022-07-23T02:51:12;18.50;99.90
12289;DHT22;6207;49.308;7.336;2022-07-23T02:53:40;18.60;99.90
12289;DHT22;6207;49.308;7.336;2022-07-23T02:56:08;18.50;99.90
12289;DHT22;6207;49.308;7.336;2022-07-23T02:58:35;18.40;99.90
12289;DHT22;6207;49.308;7.336;2022-07-23T03:01:03;18.40;99.90
12289;DHT22;6207;49.308;7.336;2022-07-23T03:03:31;18.40;99.90
12289;DHT22;6207;49.308;7.336;2022-07-23T03:06:03;18.30;99.90
12289;DHT22;6207;49.308;7.336;2022-07-23T03:08:53;18.40;99.90
12289;DHT22;6207;49.308;7.336;2022-07-23T03:11:22;18.30;99.90
12289;DHT22;6207;49.308;7.336;2022-07-23T03:13:54;18.10;99.90
12289;DHT22;6207;49.308;7.336;2022-07-23T03:16:26;18.20;99.90
12289;DHT22;6207;49.308;7.336;2022-07-23T03:18:54;18.30;99.90
12289;DHT22;6207;49.308;7.336;2022-07-23T03:21:21;18.30;99.90
12289;DHT22;6207;49.308;7.336;2022-07-23T03:23:48;18.40;99.90
12289;DHT22;6207;49.308;7.336;2022-07-23T03:26:15;18.30;99.90
12289;DHT22;6207;49.308;7.336;2022-07-23T03:28:43;18.20;99.90
12289;DHT22;6207;49.308;7.336;2022-07-23T03:31:09;18.20;99.90
12289;DHT22;6207;49.308;7.336;2022-07-23T03:33:36;18.10;99.90
12289;DHT22;6207;49.308;7.336;2022-07-23T03:36:03;18.10;99.90
12289;DHT22;6207;49.308;7.336;2022-07-23T03:38:35;18.20;99.90
12289;DHT22;6207;49.308;7.336;2022-07-23T03:41:03;18.40;99.90
12289;DHT22;6207;49.308;7.336;2022-07-23T03:43:31;18.30;99.90
12289;DHT22;6207;49.308;7.336;2022-07-23T03:45:58;18.30;99.90
12289;DHT22;6207;49.308;7.336;2022-07-23T03:48:25;18.20;99.90
12289;DHT22;6207;49.308;7.336;2022-07-23T03:50:51;18.20;99.90
12289;DHT22;6207;49.308;7.336;2022-07-23T03:53:18;18.10;99.90
12289;DHT22;6207;49.308;7.336;2022-07-23T03:55:45;18.20;99.90
12289;DHT22;6207;49.308;7.336;2022-07-23T03:58:12;18.10;99.90
12289;DHT22;6207;49.308;7.336;2022-07-23T04:00:39;18.10;99.90
12289;DHT22;6207;49.308;7.336;2022-07-23T04:03:07;17.90;99.90
12289;DHT22;6207;49.308;7.336;2022-07-23T04:05:48;18.00;99.90
12289;DHT22;6207;49.308;7.336;2022-07-23T04:08:15;17.90;99.90
12289;DHT22;6207;49.308;7.336;2022-07-23T04:10:42;18.00;99.90
12289;DHT22;6207;49.308;7.336;2022-07-23T04:13:09;18.00;99.90
12289;DHT22;6207;49.308;7.336;2022-07-23T04:15:36;18.10;99.90
12289;DHT22;6207;49.308;7.336;2022-07-23T04:18:05;18.10;99.90
12289;DHT22;6207;49.308;7.336;2022-07-23T04:20:33;18.00;99.90
12289;DHT22;6207;49.308;7.336;2022-07-23T04:23:06;18.00;99.90
12289;DHT22;6207;49.308;7.336;2022-07-23T04:25:33;18.00;99.90
12289;DHT22;6207;49.308;7.336;2022-07-23T04:28:00;17.90;99.90
12289;DHT22;6207;49.308;7.336;2022-07-23T04:30:26;18.10;99.90
12289;DHT22;6207;49.308;7.336;2022-07-23T04:32:53;18.40;99.90
12289;DHT22;6207;49.308;7.336;2022-07-23T04:35:20;18.10;99.90
12289;DHT22;6207;49.308;7.336;2022-07-23T04:37:47;18.00;99.90
12289;DHT22;6207;49.308;7.336;2022-07-23T04:40:14;18.00;99.90
12289;DHT22;6207;49.308;7.336;2022-07-23T04:42:41;18.20;99.90
12289;DHT22;6207;49.308;7.336;2022-07-23T04:45:08;18.10;99.90
12289;DHT22;6207;49.308;7.336;2022-07-23T04:47:39;18.10;99.90
12289;DHT22;6207;49.308;7.336;2022-07-23T04:50:06;18.20;99.90
12289;DHT22;6207;49.308;7.336;2022-07-23T04:52:33;18.20;99.90
12289;DHT22;6207;49.308;7.336;2022-07-23T04:55:00;18.20;99.90
12289;DHT22;6207;49.308;7.336;2022-07-23T04:57:27;18.20;99.90
12289;DHT22;6207;49.308;7.336;2022-07-23T04:59:54;18.40;99.90
12289;DHT22;6207;49.308;7.336;2022-07-23T05:02:41;18.40;99.90
12289;DHT22;6207;49.308;7.336;2022-07-23T05:05:08;18.30;99.90
12289;DHT22;6207;49.308;7.336;2022-07-23T05:07:35;18.30;99.90
12289;DHT22;6207;49.308;7.336;2022-07-23T05:10:02;18.10;99.90
12289;DHT22;6207;49.308;7.336;2022-07-23T05:12:29;18.20;99.90
12289;DHT22;6207;49.308;7.336;2022-07-23T05:14:55;18.30;99.90
12289;DHT22;6207;49.308;7.336;2022-07-23T05:17:22;18.40;99.90
12289;DHT22;6207;49.308;7.336;2022-07-23T05:19:49;18.50;99.90
12289;DHT22;6207;49.308;7.336;2022-07-23T05:22:16;18.60;99.90
12289;DHT22;6207;49.308;7.336;2022-07-23T05:24:43;18.60;99.90
12289;DHT22;6207;49.308;7.336;2022-07-23T05:27:09;18.50;99.90
12289;DHT22;6207;49.308;7.336;2022-07-23T05:29:39;18.60;99.90
12289;DHT22;6207;49.308;7.336;2022-07-23T05:32:06;18.60;99.90
12289;DHT22;6207;49.308;7.336;2022-07-23T05:34:33;18.50;99.90
12289;DHT22;6207;49.308;7.336;2022-07-23T05:36:59;18.60;99.90
12289;DHT22;6207;49.308;7.336;2022-07-23T05:39:26;18.50;99.90
12289;DHT22;6207;49.308;7.336;2022-07-23T05:41:53;18.40;99.90
12289;DHT22;6207;49.308;7.336;2022-07-23T05:44:20;18.50;99.90
12289;DHT22;6207;49.308;7.336;2022-07-23T05:46:47;18.50;99.90
12289;DHT22;6207;49.308;7.336;2022-07-23T05:49:14;18.60;99.90
12289;DHT22;6207;49.308;7.336;2022-07-23T05:51:41;18.30;99.90
12289;DHT22;6207;49.308;7.336;2022-07-23T05:54:12;18.30;99.90
12289;DHT22;6207;49.308;7.336;2022-07-23T05:56:39;18.30;99.90
12289;DHT22;6207;49.308;7.336;2022-07-23T05:59:05;18.30;99.90
12289;DHT22;6207;49.308;7.336;2022-07-23T06:01:32;18.20;99.90
12289;DHT22;6207;49.308;7.336;2022-07-23T06:04:00;18.40;99.90
12289;DHT22;6207;49.308;7.336;2022-07-23T06:06:27;18.40;99.90
12289;DHT22;6207;49.308;7.336;2022-07-23T06:08:54;18.80;99.90
12289;DHT22;6207;49.308;7.336;2022-07-23T06:11:21;19.50;99.90
12289;DHT22;6207;49.308;7.336;2022-07-23T06:13:48;20.00;99.90
12289;DHT22;6207;49.308;7.336;2022-07-23T06:16:14;20.10;99.90
12289;DHT22;6207;49.308;7.336;2022-07-23T06:18:41;20.60;99.90
12289;DHT22;6207;49.308;7.336;2022-07-23T06:21:09;21.90;99.90
12289;DHT22;6207;49.308;7.336;2022-07-23T06:23:55;22.30;99.90
12289;DHT22;6207;49.308;7.336;2022-07-23T06:26:22;21.50;99.90
12289;DHT22;6207;49.308;7.336;2022-07-23T06:28:49;22.90;99.90
12289;DHT22;6207;49.308;7.336;2022-07-23T06:31:17;24.00;99.90
12289;DHT22;6207;49.308;7.336;2022-07-23T06:33:45;22.40;99.90
12289;DHT22;6207;49.308;7.336;2022-07-23T06:36:12;22.00;99.90
12289;DHT22;6207;49.308;7.336;2022-07-23T06:38:47;22.90;99.90
12289;DHT22;6207;49.308;7.336;2022-07-23T06:41:55;23.80;99.90
12289;DHT22;6207;49.308;7.336;2022-07-23T06:44:27;24.90;99.90
12289;DHT22;6207;49.308;7.336;2022-07-23T06:47:14;25.00;99.90
12289;DHT22;6207;49.308;7.336;2022-07-23T06:49:54;25.40;99.90
12289;DHT22;6207;49.308;7.336;2022-07-23T06:52:27;25.30;99.90
12289;DHT22;6207;49.308;7.336;2022-07-23T06:54:54;23.60;99.90
12289;DHT22;6207;49.308;7.336;2022-07-23T06:57:21;22.40;99.90
12289;DHT22;6207;49.308;7.336;2022-07-23T06:59:51;22.00;99.90
12289;DHT22;6207;49.308;7.336;2022-07-23T07:02:24;21.70;99.90
12289;DHT22;6207;49.308;7.336;2022-07-23T07:04:50;21.40;99.90
12289;DHT22;6207;49.308;7.336;2022-07-23T07:07:18;22.10;99.90
12289;DHT22;6207;49.308;7.336;2022-07-23T07:09:44;22.60;99.90
12289;DHT22;6207;49.308;7.336;2022-07-23T07:12:14;22.20;99.90
12289;DHT22;6207;49.308;7.336;2022-07-23T07:14:41;21.90;99.90
12289;DHT22;6207;49.308;7.336;2022-07-23T07:17:08;21.30;99.90
12289;DHT22;6207;49.308;7.336;2022-07-23T07:19:37;21.70;99.90
12289;DHT22;6207;49.308;7.336;2022-07-23T07:22:04;21.70;99.90
12289;DHT22;6207;49.308;7.336;2022-07-23T07:24:31;22.40;99.90
12289;DHT22;6207;49.308;7.336;2022-07-23T07:27:04;22.50;99.90
12289;DHT22;6207;49.308;7.336;2022-07-23T07:29:30;24.60;99.90
12289;DHT22;6207;49.308;7.336;2022-07-23T07:31:57;25.70;99.90
12289;DHT22;6207;49.308;7.336;2022-07-23T07:34:24;25.20;99.90
12289;DHT22;6207;49.308;7.336;2022-07-23T07:36:51;24.70;99.90
12289;DHT22;6207;49.308;7.336;2022-07-23T07:39:17;25.40;99.90
12289;DHT22;6207;49.308;7.336;2022-07-23T07:41:44;24.10;99.90
12289;DHT22;6207;49.308;7.336;2022-07-23T07:44:11;23.10;99.90
12289;DHT22;6207;49.308;7.336;2022-07-23T07:46:38;22.60;99.90
12289;DHT22;6207;49.308;7.336;2022-07-23T07:49:04;22.60;99.90
12289;DHT22;6207;49.308;7.336;2022-07-23T07:51:33;23.30;99.90
12289;DHT22;6207;49.308;7.336;2022-07-23T07:54:00;23.60;99.90
12289;DHT22;6207;49.308;7.336;2022-07-23T07:56:27;23.60;99.90
12289;DHT22;6207;49.308;7.336;2022-07-23T07:58:54;22.80;99.90
12289;DHT22;6207;49.308;7.336;2022-07-23T08:01:21;22.90;99.90
12289;DHT22;6207;49.308;7.336;2022-07-23T08:03:48;22.60;99.90
12289;DHT22;6207;49.308;7.336;2022-07-23T08:06:16;22.10;99.90
12289;DHT22;6207;49.308;7.336;2022-07-23T08:08:42;22.70;99.90
12289;DHT22;6207;49.308;7.336;2022-07-23T08:11:09;22.50;99.90
12289;DHT22;6207;49.308;7.336;2022-07-23T08:13:36;22.00;99.90
12289;DHT22;6207;49.308;7.336;2022-07-23T08:16:03;22.30;99.90
12289;DHT22;6207;49.308;7.336;2022-07-23T08:18:34;22.40;99.90
12289;DHT22;6207;49.308;7.336;2022-07-23T08:21:01;22.30;99.90
12289;DHT22;6207;49.308;7.336;2022-07-23T08:23:27;22.80;99.90
12289;DHT22;6207;49.308;7.336;2022-07-23T08:25:56;23.00;99.90
12289;DHT22;6207;49.308;7.336;2022-07-23T08:28:23;23.30;99.90
12289;DHT22;6207;49.308;7.336;2022-07-23T08:30:50;23.10;99.90
12289;DHT22;6207;49.308;7.336;2022-07-23T08:33:18;23.20;99.90
12289;DHT22;6207;49.308;7.336;2022-07-23T08:35:56;23.40;99.90
12289;DHT22;6207;49.308;7.336;2022-07-23T08:38:24;23.10;99.90
12289;DHT22;6207;49.308;7.336;2022-07-23T08:40:53;23.30;99.90
12289;DHT22;6207;49.308;7.336;2022-07-23T08:43:25;23.40;99.90
12289;DHT22;6207;49.308;7.336;2022-07-23T08:45:54;23.70;99.90
12289;DHT22;6207;49.308;7.336;2022-07-23T08:48:31;23.30;99.90
12289;DHT22;6207;49.308;7.336;2022-07-23T08:51:00;23.20;99.90
12289;DHT22;6207;49.308;7.336;2022-07-23T08:53:28;23.20;99.90
12289;DHT22;6207;49.308;7.336;2022-07-23T08:55:57;23.50;99.90
12289;DHT22;6207;49.308;7.336;2022-07-23T08:58:25;23.90;99.90
12289;DHT22;6207;49.308;7.336;2022-07-23T09:00:54;23.70;99.90
12289;DHT22;6207;49.308;7.336;2022-07-23T09:03:34;23.90;99.90
12289;DHT22;6207;49.308;7.336;2022-07-23T09:06:02;23.60;99.90
12289;DHT22;6207;49.308;7.336;2022-07-23T09:08:42;24.00;99.90
12289;DHT22;6207;49.308;7.336;2022-07-23T09:11:11;24.30;99.90
12289;DHT22;6207;49.308;7.336;2022-07-23T09:13:45;24.20;99.90
12289;DHT22;6207;49.308;7.336;2022-07-23T09:16:17;24.10;99.90
12289;DHT22;6207;49.308;7.336;2022-07-23T09:18:57;24.30;99.90
12289;DHT22;6207;49.308;7.336;2022-07-23T09:21:29;24.10;99.90
12289;DHT22;6207;49.308;7.336;2022-07-23T09:24:10;24.20;99.90
12289;DHT22;6207;49.308;7.336;2022-07-23T09:26:44;24.10;99.90
12289;DHT22;6207;49.308;7.336;2022-07-23T09:29:22;24.10;99.90
12289;DHT22;6207;49.308;7.336;2022-07-23T09:37:18;24.90;99.90
12289;DHT22;6207;49.308;7.336;2022-07-23T09:39:47;24.70;99.90
12289;DHT22;6207;49.308;7.336;2022-07-23T09:42:22;25.20;99.90
12289;DHT22;6207;49.308;7.336;2022-07-23T09:44:56;25.40;99.90
12289;DHT22;6207;49.308;7.336;2022-07-23T09:47:25;25.40;99.90
12289;DHT22;6207;49.308;7.336;2022-07-23T09:50:06;26.20;99.90
12289;DHT22;6207;49.308;7.336;2022-07-23T09:52:46;27.00;99.90
12289;DHT22;6207;49.308;7.336;2022-07-23T09:55:45;27.60;99.90
12289;DHT22;6207;49.308;7.336;2022-07-23T09:58:12;28.30;99.90
12289;DHT22;6207;49.308;7.336;2022-07-23T10:00:40;29.20;99.90
12289;DHT22;6207;49.308;7.336;2022-07-23T10:03:08;28.10;99.90
12289;DHT22;6207;49.308;7.336;2022-07-23T10:05:36;27.30;99.90
12289;DHT22;6207;49.308;7.336;2022-07-23T10:08:04;26.90;99.90
12289;DHT22;6207;49.308;7.336;2022-07-23T10:10:33;27.70;99.90
12289;DHT22;6207;49.308;7.336;2022-07-23T10:13:04;26.00;99.90
12289;DHT22;6207;49.308;7.336;2022-07-23T10:19:26;25.40;99.90
12289;DHT22;6207;49.308;7.336;2022-07-23T10:21:57;25.00;99.90
12289;DHT22;6207;49.308;7.336;2022-07-23T12:37:03;27.40;99.90
12289;DHT22;6207;49.308;7.336;2022-07-23T12:39:31;27.20;99.90
12289;DHT22;6207;49.308;7.336;2022-07-23T12:41:58;27.40;99.90
12289;DHT22;6207;49.308;7.336;2022-07-23T12:44:24;27.20;99.90
12289;DHT22;6207;49.308;7.336;2022-07-23T12:46:54;27.20;99.90
12289;DHT22;6207;49.308;7.336;2022-07-23T12:49:27;27.00;99.90
12289;DHT22;6207;49.308;7.336;2022-07-23T12:51:56;27.00;99.90
12289;DHT22;6207;49.308;7.336;2022-07-23T12:54:27;27.00;99.90
12289;DHT22;6207;49.308;7.336;2022-07-23T12:56:54;27.10;99.90
12289;DHT22;6207;49.308;7.336;2022-07-23T12:59:22;27.20;99.90
12289;DHT22;6207;49.308;7.336;2022-07-23T13:01:56;27.40;99.90
12289;DHT22;6207;49.308;7.336;2022-07-23T13:04:25;27.10;99.90
12289;DHT22;6207;49.308;7.336;2022-07-23T13:06:54;26.80;99.90
12289;DHT22;6207;49.308;7.336;2022-07-23T13:09:27;26.50;99.90
12289;DHT22;6207;49.308;7.336;2022-07-23T13:12:00;26.80;99.90
12289;DHT22;6207;49.308;7.336;2022-07-23T13:14:28;27.30;99.90
12289;DHT22;6207;49.308;7.336;2022-07-23T13:16:55;27.30;99.90
12289;DHT22;6207;49.308;7.336;2022-07-23T13:19:25;27.10;99.90
12289;DHT22;6207;49.308;7.336;2022-07-23T13:21:53;27.10;99.90
12289;DHT22;6207;49.308;7.336;2022-07-23T13:24:21;26.80;99.90
12289;DHT22;6207;49.308;7.336;2022-07-23T13:26:48;26.60;99.90
12289;DHT22;6207;49.308;7.336;2022-07-23T13:29:17;26.60;99.90
12289;DHT22;6207;49.308;7.336;2022-07-23T13:31:46;26.60;99.90
12289;DHT22;6207;49.308;7.336;2022-07-23T13:34:14;27.10;99.90
12289;DHT22;6207;49.308;7.336;2022-07-23T13:36:41;27.50;99.90
12289;DHT22;6207;49.308;7.336;2022-07-23T13:39:10;27.70;99.90
12289;DHT22;6207;49.308;7.336;2022-07-23T13:41:38;27.80;99.90
12289;DHT22;6207;49.308;7.336;2022-07-23T13:44:05;27.90;99.90
12289;DHT22;6207;49.308;7.336;2022-07-23T13:46:33;28.00;99.90
12289;DHT22;6207;49.308;7.336;2022-07-23T13:49:01;28.40;99.90
12289;DHT22;6207;49.308;7.336;2022-07-23T13:51:28;28.40;99.90
12289;DHT22;6207;49.308;7.336;2022-07-23T13:53:55;28.30;99.90
12289;DHT22;6207;49.308;7.336;2022-07-23T13:56:26;28.00;99.90
12289;DHT22;6207;49.308;7.336;2022-07-23T13:58:53;28.00;99.90
12289;DHT22;6207;49.308;7.336;2022-07-23T14:01:20;28.10;99.90
12289;DHT22;6207;49.308;7.336;2022-07-23T14:03:46;28.30;99.90
12289;DHT22;6207;49.308;7.336;2022-07-23T14:06:13;28.10;99.90
12289;DHT22;6207;49.308;7.336;2022-07-23T14:08:43;28.30;99.90
12289;DHT22;6207;49.308;7.336;2022-07-23T14:11:10;28.20;99.90
12289;DHT22;6207;49.308;7.336;2022-07-23T14:13:37;28.40;99.90
12289;DHT22;6207;49.308;7.336;2022-07-23T14:16:05;28.50;99.90
12289;DHT22;6207;49.308;7.336;2022-07-23T14:18:33;28.60;99.90
12289;DHT22;6207;49.308;7.336;2022-07-23T14:21:01;28.60;99.90
12289;DHT22;6207;49.308;7.336;2022-07-23T14:23:28;28.20;99.90
12289;DHT22;6207;49.308;7.336;2022-07-23T14:25:56;28.70;99.90
12289;DHT22;6207;49.308;7.336;2022-07-23T14:28:23;28.30;99.90
12289;DHT22;6207;49.308;7.336;2022-07-23T14:30:51;28.30;99.90
12289;DHT22;6207;49.308;7.336;2022-07-23T14:33:18;28.40;99.90
12289;DHT22;6207;49.308;7.336;2022-07-23T14:35:46;28.20;99.90
12289;DHT22;6207;49.308;7.336;2022-07-23T14:38:13;27.90;99.90
12289;DHT22;6207;49.308;7.336;2022-07-23T14:40:41;27.90;99.90
12289;DHT22;6207;49.308;7.336;2022-07-23T14:43:09;27.90;99.90
12289;DHT22;6207;49.308;7.336;2022-07-23T14:45:38;28.20;99.90
12289;DHT22;6207;49.308;7.336;2022-07-23T14:48:05;28.40;99.90
12289;DHT22;6207;49.308;7.336;2022-07-23T14:50:39;28.10;99.90
12289;DHT22;6207;49.308;7.336;2022-07-23T14:53:14;28.40;99.90
12289;DHT22;6207;49.308;7.336;2022-07-23T14:55:51;28.70;99.90
12289;DHT22;6207;49.308;7.336;2022-07-23T14:58:26;28.50;99.90
12289;DHT22;6207;49.308;7.336;2022-07-23T15:00:53;27.90;99.90
12289;DHT22;6207;49.308;7.336;2022-07-23T15:03:21;28.00;99.90
12289;DHT22;6207;49.308;7.336;2022-07-23T15:06:03;28.10;99.90
12289;DHT22;6207;49.308;7.336;2022-07-23T15:08:30;28.70;99.90
12289;DHT22;6207;49.308;7.336;2022-07-23T15:11:01;28.50;99.90
12289;DHT22;6207;49.308;7.336;2022-07-23T15:13:41;28.30;99.90
12289;DHT22;6207;49.308;7.336;2022-07-23T15:16:38;28.70;99.90
12289;DHT22;6207;49.308;7.336;2022-07-23T15:19:26;28.90;99.90
12289;DHT22;6207;49.308;7.336;2022-07-23T15:22:38;29.10;99.90
12289;DHT22;6207;49.308;7.336;2022-07-23T15:25:23;29.00;99.90
